sensor_id;sensor_type;location;lat;lon;timestamp;P1;durP1;ratioP1;P2;durP2;ratioP2
63653;SDS011;49809;47.418;19.080;2023-06-10T00:02:55;7.60;;;4.40;;
63653;SDS011;49809;47.418;19.080;2023-06-10T00:07:14;6.30;;;3.92;;
63653;SDS011;49809;47.418;19.080;2023-06-10T00:10:44;6.50;;;4.50;;
63653;SDS011;49809;47.418;19.080;2023-06-10T00:14:19;7.62;;;4.10;;
63653;SDS011;49809;47.418;19.080;2023-06-10T00:17:55;6.40;;;3.95;;
63653;SDS011;49809;47.418;19.080;2023-06-10T00:24:55;5.50;;;4.00;;
63653;SDS011;49809;47.418;19.080;2023-06-10T00:28:42;5.82;;;4.18;;
63653;SDS011;49809;47.418;19.080;2023-06-10T00:32:33;6.95;;;4.35;;
63653;SDS011;49809;47.418;19.080;2023-06-10T00:36:21;7.62;;;4.90;;
63653;SDS011;49809;47.418;19.080;2023-06-10T00:39:54;14.23;;;8.38;;
63653;SDS011;49809;47.418;19.080;2023-06-10T00:43:23;13.15;;;7.37;;
63653;SDS011;49809;47.418;19.080;2023-06-10T00:46:59;11.25;;;6.93;;
63653;SDS011;49809;47.418;19.080;2023-06-10T00:50:46;9.65;;;6.22;;
63653;SDS011;49809;47.418;19.080;2023-06-10T00:54:22;8.38;;;5.68;;
63653;SDS011;49809;47.418;19.080;2023-06-10T00:58:02;7.25;;;4.93;;
63653;SDS011;49809;47.418;19.080;2023-06-10T01:01:48;8.68;;;4.82;;
63653;SDS011;49809;47.418;19.080;2023-06-10T01:05:25;8.38;;;4.90;;
63653;SDS011;49809;47.418;19.080;2023-06-10T01:09:02;7.05;;;4.57;;
63653;SDS011;49809;47.418;19.080;2023-06-10T01:12:39;7.50;;;4.55;;
63653;SDS011;49809;47.418;19.080;2023-06-10T01:16:31;7.25;;;5.12;;
63653;SDS011;49809;47.418;19.080;2023-06-10T01:20:25;8.75;;;5.80;;
63653;SDS011;49809;47.418;19.080;2023-06-10T01:23:51;10.50;;;6.37;;
63653;SDS011;49809;47.418;19.080;2023-06-10T01:27:37;6.57;;;4.43;;
63653;SDS011;49809;47.418;19.080;2023-06-10T01:31:20;7.20;;;4.45;;
63653;SDS011;49809;47.418;19.080;2023-06-10T01:35:09;5.97;;;4.47;;
63653;SDS011;49809;47.418;19.080;2023-06-10T01:38:40;5.03;;;3.90;;
63653;SDS011;49809;47.418;19.080;2023-06-10T01:42:06;6.35;;;4.30;;
63653;SDS011;49809;47.418;19.080;2023-06-10T01:46:01;5.72;;;4.30;;
63653;SDS011;49809;47.418;19.080;2023-06-10T01:49:34;5.35;;;3.75;;
63653;SDS011;49809;47.418;19.080;2023-06-10T01:53:10;4.32;;;3.30;;
63653;SDS011;49809;47.418;19.080;2023-06-10T01:57:04;4.22;;;3.20;;
63653;SDS011;49809;47.418;19.080;2023-06-10T02:00:43;5.25;;;3.58;;
63653;SDS011;49809;47.418;19.080;2023-06-10T02:04:35;5.18;;;3.78;;
63653;SDS011;49809;47.418;19.080;2023-06-10T02:08:00;7.00;;;3.72;;
63653;SDS011;49809;47.418;19.080;2023-06-10T02:11:36;8.05;;;3.97;;
63653;SDS011;49809;47.418;19.080;2023-06-10T02:15:13;5.80;;;3.62;;
63653;SDS011;49809;47.418;19.080;2023-06-10T02:19:03;4.40;;;3.60;;
63653;SDS011;49809;47.418;19.080;2023-06-10T02:22:32;5.12;;;3.47;;
63653;SDS011;49809;47.418;19.080;2023-06-10T02:26:18;6.70;;;3.90;;
63653;SDS011;49809;47.418;19.080;2023-06-10T02:29:45;6.30;;;3.87;;
63653;SDS011;49809;47.418;19.080;2023-06-10T02:33:21;7.37;;;3.90;;
63653;SDS011;49809;47.418;19.080;2023-06-10T02:37:03;6.50;;;4.47;;
63653;SDS011;49809;47.418;19.080;2023-06-10T02:40:42;5.45;;;3.87;;
63653;SDS011;49809;47.418;19.080;2023-06-10T02:44:18;6.03;;;3.92;;
63653;SDS011;49809;47.418;19.080;2023-06-10T02:48:05;6.93;;;4.10;;
63653;SDS011;49809;47.418;19.080;2023-06-10T02:52:07;5.85;;;3.87;;
63653;SDS011;49809;47.418;19.080;2023-06-10T02:55:56;5.80;;;4.25;;
63653;SDS011;49809;47.418;19.080;2023-06-10T03:00:07;5.53;;;4.05;;
63653;SDS011;49809;47.418;19.080;2023-06-10T03:04:04;6.12;;;3.85;;
63653;SDS011;49809;47.418;19.080;2023-06-10T03:07:51;5.87;;;3.75;;
63653;SDS011;49809;47.418;19.080;2023-06-10T03:11:40;6.53;;;3.60;;
63653;SDS011;49809;47.418;19.080;2023-06-10T03:18:54;6.87;;;3.80;;
63653;SDS011;49809;47.418;19.080;2023-06-10T03:22:25;4.72;;;3.20;;
63653;SDS011;49809;47.418;19.080;2023-06-10T03:26:12;6.97;;;4.35;;
63653;SDS011;49809;47.418;19.080;2023-06-10T03:29:51;5.93;;;3.30;;
63653;SDS011;49809;47.418;19.080;2023-06-10T03:34:07;5.85;;;3.30;;
63653;SDS011;49809;47.418;19.080;2023-06-10T03:38:01;5.18;;;3.30;;
63653;SDS011;49809;47.418;19.080;2023-06-10T03:41:55;3.20;;;2.72;;
63653;SDS011;49809;47.418;19.080;2023-06-10T03:46:06;5.60;;;3.42;;
63653;SDS011;49809;47.418;19.080;2023-06-10T03:49:55;7.00;;;3.58;;
63653;SDS011;49809;47.418;19.080;2023-06-10T03:53:43;5.62;;;3.42;;
63653;SDS011;49809;47.418;19.080;2023-06-10T03:57:18;5.75;;;3.47;;
63653;SDS011;49809;47.418;19.080;2023-06-10T04:01:02;4.25;;;3.03;;
63653;SDS011;49809;47.418;19.080;2023-06-10T04:04:39;4.90;;;3.00;;
63653;SDS011;49809;47.418;19.080;2023-06-10T04:08:08;4.25;;;2.90;;
63653;SDS011;49809;47.418;19.080;2023-06-10T04:11:49;3.95;;;2.85;;
63653;SDS011;49809;47.418;19.080;2023-06-10T04:15:35;4.07;;;3.05;;
63653;SDS011;49809;47.418;19.080;2023-06-10T04:19:12;6.07;;;3.05;;
63653;SDS011;49809;47.418;19.080;2023-06-10T04:23:00;3.42;;;2.60;;
63653;SDS011;49809;47.418;19.080;2023-06-10T04:26:54;5.40;;;3.12;;
63653;SDS011;49809;47.418;19.080;2023-06-10T04:30:49;6.97;;;2.92;;
63653;SDS011;49809;47.418;19.080;2023-06-10T04:34:33;6.47;;;3.20;;
63653;SDS011;49809;47.418;19.080;2023-06-10T04:38:22;4.75;;;3.17;;
63653;SDS011;49809;47.418;19.080;2023-06-10T04:41:44;5.40;;;3.03;;
63653;SDS011;49809;47.418;19.080;2023-06-10T04:45:20;4.78;;;3.60;;
63653;SDS011;49809;47.418;19.080;2023-06-10T04:53:06;3.78;;;2.60;;
63653;SDS011;49809;47.418;19.080;2023-06-10T04:56:37;3.62;;;2.35;;
63653;SDS011;49809;47.418;19.080;2023-06-10T05:00:57;3.62;;;2.55;;
63653;SDS011;49809;47.418;19.080;2023-06-10T05:04:24;2.90;;;2.00;;
63653;SDS011;49809;47.418;19.080;2023-06-10T05:08:09;3.10;;;2.20;;
63653;SDS011;49809;47.418;19.080;2023-06-10T05:11:44;4.12;;;2.35;;
63653;SDS011;49809;47.418;19.080;2023-06-10T05:15:35;4.03;;;2.10;;
63653;SDS011;49809;47.418;19.080;2023-06-10T05:19:30;3.12;;;2.20;;
63653;SDS011;49809;47.418;19.080;2023-06-10T05:23:05;2.65;;;2.08;;
63653;SDS011;49809;47.418;19.080;2023-06-10T05:26:53;2.72;;;2.00;;
63653;SDS011;49809;47.418;19.080;2023-06-10T05:34:39;5.00;;;2.08;;
63653;SDS011;49809;47.418;19.080;2023-06-10T05:38:05;2.62;;;2.00;;
63653;SDS011;49809;47.418;19.080;2023-06-10T05:41:58;2.70;;;1.80;;
63653;SDS011;49809;47.418;19.080;2023-06-10T05:45:44;3.03;;;1.80;;
63653;SDS011;49809;47.418;19.080;2023-06-10T05:49:12;7.00;;;1.95;;
63653;SDS011;49809;47.418;19.080;2023-06-10T05:53:09;4.80;;;2.10;;
63653;SDS011;49809;47.418;19.080;2023-06-10T05:56:37;3.05;;;1.87;;
63653;SDS011;49809;47.418;19.080;2023-06-10T06:00:25;2.62;;;1.98;;
63653;SDS011;49809;47.418;19.080;2023-06-10T06:04:11;2.40;;;2.08;;
63653;SDS011;49809;47.418;19.080;2023-06-10T06:07:37;2.37;;;1.95;;
63653;SDS011;49809;47.418;19.080;2023-06-10T06:11:13;2.83;;;1.80;;
63653;SDS011;49809;47.418;19.080;2023-06-10T06:15:06;2.42;;;1.95;;
63653;SDS011;49809;47.418;19.080;2023-06-10T06:19:00;4.37;;;2.15;;
63653;SDS011;49809;47.418;19.080;2023-06-10T06:22:52;3.30;;;2.03;;
63653;SDS011;49809;47.418;19.080;2023-06-10T06:26:22;3.08;;;2.17;;
63653;SDS011;49809;47.418;19.080;2023-06-10T06:30:24;3.37;;;2.17;;
63653;SDS011;49809;47.418;19.080;2023-06-10T06:33:50;2.97;;;2.10;;
63653;SDS011;49809;47.418;19.080;2023-06-10T06:37:16;3.60;;;1.87;;
63653;SDS011;49809;47.418;19.080;2023-06-10T06:40:56;3.10;;;2.33;;
63653;SDS011;49809;47.418;19.080;2023-06-10T06:45:06;2.85;;;2.10;;
63653;SDS011;49809;47.418;19.080;2023-06-10T06:48:32;2.40;;;2.20;;
63653;SDS011;49809;47.418;19.080;2023-06-10T06:52:17;3.87;;;2.35;;
63653;SDS011;49809;47.418;19.080;2023-06-10T06:55:53;3.45;;;2.15;;
63653;SDS011;49809;47.418;19.080;2023-06-10T06:59:30;2.90;;;2.12;;
63653;SDS011;49809;47.418;19.080;2023-06-10T07:03:17;3.35;;;2.53;;
63653;SDS011;49809;47.418;19.080;2023-06-10T07:06:44;4.32;;;2.35;;
63653;SDS011;49809;47.418;19.080;2023-06-10T07:10:32;2.53;;;2.22;;
63653;SDS011;49809;47.418;19.080;2023-06-10T07:14:08;2.97;;;2.47;;
63653;SDS011;49809;47.418;19.080;2023-06-10T07:17:28;3.12;;;2.70;;
63653;SDS011;49809;47.418;19.080;2023-06-10T07:21:51;4.93;;;2.80;;
63653;SDS011;49809;47.418;19.080;2023-06-10T07:25:26;4.55;;;2.78;;
63653;SDS011;49809;47.418;19.080;2023-06-10T07:29:23;4.57;;;3.55;;
63653;SDS011;49809;47.418;19.080;2023-06-10T07:32:51;3.90;;;3.05;;
63653;SDS011;49809;47.418;19.080;2023-06-10T07:36:42;4.03;;;3.30;;
63653;SDS011;49809;47.418;19.080;2023-06-10T07:40:23;4.35;;;3.40;;
63653;SDS011;49809;47.418;19.080;2023-06-10T07:43:41;4.15;;;3.12;;
63653;SDS011;49809;47.418;19.080;2023-06-10T07:47:22;4.60;;;3.30;;
63653;SDS011;49809;47.418;19.080;2023-06-10T07:50:53;4.87;;;3.50;;
63653;SDS011;49809;47.418;19.080;2023-06-10T07:54:51;4.30;;;3.08;;
63653;SDS011;49809;47.418;19.080;2023-06-10T07:58:33;3.67;;;3.30;;
63653;SDS011;49809;47.418;19.080;2023-06-10T08:01:56;3.78;;;3.47;;
63653;SDS011;49809;47.418;19.080;2023-06-10T08:05:19;6.12;;;5.07;;
63653;SDS011;49809;47.418;19.080;2023-06-10T08:09:08;3.97;;;3.53;;
63653;SDS011;49809;47.418;19.080;2023-06-10T08:12:53;3.60;;;3.30;;
63653;SDS011;49809;47.418;19.080;2023-06-10T08:16:25;4.07;;;3.67;;
63653;SDS011;49809;47.418;19.080;2023-06-10T08:20:01;4.20;;;3.75;;
63653;SDS011;49809;47.418;19.080;2023-06-10T08:23:37;4.25;;;3.47;;
63653;SDS011;49809;47.418;19.080;2023-06-10T08:27:02;4.87;;;3.45;;
63653;SDS011;49809;47.418;19.080;2023-06-10T08:30:22;3.28;;;2.97;;
63653;SDS011;49809;47.418;19.080;2023-06-10T08:33:56;4.43;;;3.55;;
63653;SDS011;49809;47.418;19.080;2023-06-10T08:37:32;3.92;;;3.12;;
63653;SDS011;49809;47.418;19.080;2023-06-10T08:41:05;5.15;;;3.90;;
63653;SDS011;49809;47.418;19.080;2023-06-10T08:44:35;4.07;;;3.67;;
63653;SDS011;49809;47.418;19.080;2023-06-10T08:48:15;5.62;;;4.22;;
63653;SDS011;49809;47.418;19.080;2023-06-10T08:51:57;5.30;;;4.70;;
63653;SDS011;49809;47.418;19.080;2023-06-10T08:55:50;6.30;;;4.62;;
63653;SDS011;49809;47.418;19.080;2023-06-10T08:59:16;4.40;;;3.92;;
63653;SDS011;49809;47.418;19.080;2023-06-10T09:02:58;5.05;;;4.53;;
63653;SDS011;49809;47.418;19.080;2023-06-10T09:06:35;4.68;;;4.15;;
63653;SDS011;49809;47.418;19.080;2023-06-10T09:10:11;5.62;;;4.10;;
63653;SDS011;49809;47.418;19.080;2023-06-10T09:13:49;6.20;;;4.68;;
63653;SDS011;49809;47.418;19.080;2023-06-10T09:17:17;6.68;;;4.85;;
63653;SDS011;49809;47.418;19.080;2023-06-10T09:20:35;6.15;;;4.70;;
63653;SDS011;49809;47.418;19.080;2023-06-10T09:24:18;5.35;;;4.30;;
63653;SDS011;49809;47.418;19.080;2023-06-10T09:27:56;4.68;;;4.15;;
63653;SDS011;49809;47.418;19.080;2023-06-10T09:31:27;5.05;;;4.35;;
63653;SDS011;49809;47.418;19.080;2023-06-10T09:35:11;5.57;;;4.72;;
63653;SDS011;49809;47.418;19.080;2023-06-10T09:38:56;6.07;;;4.70;;
63653;SDS011;49809;47.418;19.080;2023-06-10T09:42:41;6.22;;;5.28;;
63653;SDS011;49809;47.418;19.080;2023-06-10T09:46:31;6.53;;;5.03;;
63653;SDS011;49809;47.418;19.080;2023-06-10T09:50:04;7.32;;;4.72;;
63653;SDS011;49809;47.418;19.080;2023-06-10T09:53:35;5.30;;;4.80;;
63653;SDS011;49809;47.418;19.080;2023-06-10T09:56:54;6.03;;;4.95;;
63653;SDS011;49809;47.418;19.080;2023-06-10T10:00:54;6.43;;;5.10;;
63653;SDS011;49809;47.418;19.080;2023-06-10T10:04:15;4.70;;;4.22;;
63653;SDS011;49809;47.418;19.080;2023-06-10T10:07:45;4.70;;;4.28;;
63653;SDS011;49809;47.418;19.080;2023-06-10T10:10:49;5.62;;;5.00;;
63653;SDS011;49809;47.418;19.080;2023-06-10T10:14:28;5.93;;;5.32;;
63653;SDS011;49809;47.418;19.080;2023-06-10T10:18:41;5.93;;;5.32;;
63653;SDS011;49809;47.418;19.080;2023-06-10T10:22:08;7.75;;;5.97;;
63653;SDS011;49809;47.418;19.080;2023-06-10T10:25:42;6.70;;;6.00;;
63653;SDS011;49809;47.418;19.080;2023-06-10T10:33:05;7.18;;;5.70;;
63653;SDS011;49809;47.418;19.080;2023-06-10T10:36:53;7.32;;;5.95;;
63653;SDS011;49809;47.418;19.080;2023-06-10T10:40:29;6.57;;;5.50;;
63653;SDS011;49809;47.418;19.080;2023-06-10T10:44:06;6.30;;;5.70;;
63653;SDS011;49809;47.418;19.080;2023-06-10T10:48:07;6.87;;;5.57;;
63653;SDS011;49809;47.418;19.080;2023-06-10T10:51:34;6.25;;;5.50;;
63653;SDS011;49809;47.418;19.080;2023-06-10T10:55:14;6.50;;;5.35;;
63653;SDS011;49809;47.418;19.080;2023-06-10T10:59:02;8.77;;;5.47;;
63653;SDS011;49809;47.418;19.080;2023-06-10T11:02:41;7.20;;;5.37;;
63653;SDS011;49809;47.418;19.080;2023-06-10T11:06:13;6.05;;;5.43;;
63653;SDS011;49809;47.418;19.080;2023-06-10T11:09:59;8.63;;;5.10;;
63653;SDS011;49809;47.418;19.080;2023-06-10T11:13:57;6.43;;;5.68;;
63653;SDS011;49809;47.418;19.080;2023-06-10T11:21:57;6.97;;;6.10;;
63653;SDS011;49809;47.418;19.080;2023-06-10T11:29:25;6.70;;;5.62;;
63653;SDS011;49809;47.418;19.080;2023-06-10T11:36:41;6.68;;;5.97;;
63653;SDS011;49809;47.418;19.080;2023-06-10T11:40:24;6.93;;;5.93;;
63653;SDS011;49809;47.418;19.080;2023-06-10T11:43:44;7.22;;;6.53;;
63653;SDS011;49809;47.418;19.080;2023-06-10T11:47:19;7.53;;;6.83;;
63653;SDS011;49809;47.418;19.080;2023-06-10T11:50:49;7.28;;;6.28;;
63653;SDS011;49809;47.418;19.080;2023-06-10T11:54:18;6.85;;;5.53;;
63653;SDS011;49809;47.418;19.080;2023-06-10T11:57:50;6.60;;;5.50;;
63653;SDS011;49809;47.418;19.080;2023-06-10T12:01:26;6.43;;;5.70;;
63653;SDS011;49809;47.418;19.080;2023-06-10T12:05:11;6.22;;;5.55;;
63653;SDS011;49809;47.418;19.080;2023-06-10T12:08:54;5.62;;;4.72;;
63653;SDS011;49809;47.418;19.080;2023-06-10T12:12:40;7.05;;;4.62;;
63653;SDS011;49809;47.418;19.080;2023-06-10T12:20:35;4.30;;;3.90;;
63653;SDS011;49809;47.418;19.080;2023-06-10T12:24:27;5.95;;;5.35;;
63653;SDS011;49809;47.418;19.080;2023-06-10T12:27:59;5.55;;;5.05;;
63653;SDS011;49809;47.418;19.080;2023-06-10T12:31:51;5.93;;;5.32;;
63653;SDS011;49809;47.418;19.080;2023-06-10T12:35:20;8.07;;;6.10;;
63653;SDS011;49809;47.418;19.080;2023-06-10T12:38:51;5.68;;;5.07;;
63653;SDS011;49809;47.418;19.080;2023-06-10T12:42:30;5.10;;;4.62;;
63653;SDS011;49809;47.418;19.080;2023-06-10T12:46:09;6.95;;;4.07;;
63653;SDS011;49809;47.418;19.080;2023-06-10T12:49:40;3.00;;;2.80;;
63653;SDS011;49809;47.418;19.080;2023-06-10T12:53:01;3.75;;;3.35;;
63653;SDS011;49809;47.418;19.080;2023-06-10T12:56:37;3.47;;;2.20;;
63653;SDS011;49809;47.418;19.080;2023-06-10T12:59:55;2.15;;;1.95;;
63653;SDS011;49809;47.418;19.080;2023-06-10T13:04:11;2.30;;;1.85;;
63653;SDS011;49809;47.418;19.080;2023-06-10T13:07:46;2.58;;;2.05;;
63653;SDS011;49809;47.418;19.080;2023-06-10T13:11:27;2.25;;;2.05;;
63653;SDS011;49809;47.418;19.080;2023-06-10T13:15:09;2.87;;;2.40;;
63653;SDS011;49809;47.418;19.080;2023-06-10T13:18:32;2.70;;;2.25;;
63653;SDS011;49809;47.418;19.080;2023-06-10T13:22:18;2.40;;;2.10;;
63653;SDS011;49809;47.418;19.080;2023-06-10T13:25:53;2.20;;;2.00;;
63653;SDS011;49809;47.418;19.080;2023-06-10T13:29:38;1.80;;;1.70;;
63653;SDS011;49809;47.418;19.080;2023-06-10T13:33:09;2.00;;;1.80;;
63653;SDS011;49809;47.418;19.080;2023-06-10T13:36:38;1.70;;;1.60;;
63653;SDS011;49809;47.418;19.080;2023-06-10T13:40:08;1.67;;;1.58;;
63653;SDS011;49809;47.418;19.080;2023-06-10T13:47:53;1.60;;;1.50;;
63653;SDS011;49809;47.418;19.080;2023-06-10T13:51:39;2.40;;;1.90;;
63653;SDS011;49809;47.418;19.080;2023-06-10T13:55:09;1.58;;;1.48;;
63653;SDS011;49809;47.418;19.080;2023-06-10T13:58:46;3.78;;;1.85;;
63653;SDS011;49809;47.418;19.080;2023-06-10T14:02:04;1.95;;;1.75;;
63653;SDS011;49809;47.418;19.080;2023-06-10T14:05:38;2.08;;;1.83;;
63653;SDS011;49809;47.418;19.080;2023-06-10T14:09:17;2.62;;;2.30;;
63653;SDS011;49809;47.418;19.080;2023-06-10T14:12:41;2.58;;;2.08;;
63653;SDS011;49809;47.418;19.080;2023-06-10T14:16:14;2.55;;;2.35;;
63653;SDS011;49809;47.418;19.080;2023-06-10T14:19:51;3.00;;;2.20;;
63653;SDS011;49809;47.418;19.080;2023-06-10T14:23:24;3.25;;;2.58;;
63653;SDS011;49809;47.418;19.080;2023-06-10T14:27:02;3.35;;;2.75;;
63653;SDS011;49809;47.418;19.080;2023-06-10T14:30:36;4.18;;;2.95;;
63653;SDS011;49809;47.418;19.080;2023-06-10T14:34:33;4.53;;;3.00;;
63653;SDS011;49809;47.418;19.080;2023-06-10T14:38:05;3.70;;;3.00;;
63653;SDS011;49809;47.418;19.080;2023-06-10T14:42:10;3.75;;;3.10;;
63653;SDS011;49809;47.418;19.080;2023-06-10T14:45:34;4.07;;;3.22;;
63653;SDS011;49809;47.418;19.080;2023-06-10T14:49:26;4.68;;;2.87;;
63653;SDS011;49809;47.418;19.080;2023-06-10T14:52:53;3.50;;;3.15;;
63653;SDS011;49809;47.418;19.080;2023-06-10T14:56:29;3.22;;;2.72;;
63653;SDS011;49809;47.418;19.080;2023-06-10T15:00:07;3.75;;;3.05;;
63653;SDS011;49809;47.418;19.080;2023-06-10T15:03:49;3.55;;;3.03;;
63653;SDS011;49809;47.418;19.080;2023-06-10T15:07:43;3.67;;;2.72;;
63653;SDS011;49809;47.418;19.080;2023-06-10T15:11:04;4.15;;;3.12;;
63653;SDS011;49809;47.418;19.080;2023-06-10T15:14:35;3.17;;;2.58;;
63653;SDS011;49809;47.418;19.080;2023-06-10T15:18:14;3.55;;;2.78;;
63653;SDS011;49809;47.418;19.080;2023-06-10T15:21:57;3.40;;;2.92;;
63653;SDS011;49809;47.418;19.080;2023-06-10T15:25:40;4.82;;;2.85;;
63653;SDS011;49809;47.418;19.080;2023-06-10T15:29:33;3.78;;;2.40;;
63653;SDS011;49809;47.418;19.080;2023-06-10T15:32:58;2.25;;;1.92;;
63653;SDS011;49809;47.418;19.080;2023-06-10T15:36:31;2.37;;;1.90;;
63653;SDS011;49809;47.418;19.080;2023-06-10T15:40:09;2.50;;;2.05;;
63653;SDS011;49809;47.418;19.080;2023-06-10T15:43:56;3.25;;;1.90;;
63653;SDS011;49809;47.418;19.080;2023-06-10T15:47:21;2.87;;;2.17;;
63653;SDS011;49809;47.418;19.080;2023-06-10T15:50:48;3.83;;;1.83;;
63653;SDS011;49809;47.418;19.080;2023-06-10T15:54:38;2.75;;;1.98;;
63653;SDS011;49809;47.418;19.080;2023-06-10T15:57:55;3.25;;;1.80;;
63653;SDS011;49809;47.418;19.080;2023-06-10T16:01:27;2.05;;;1.50;;
63653;SDS011;49809;47.418;19.080;2023-06-10T16:04:58;2.10;;;1.67;;
63653;SDS011;49809;47.418;19.080;2023-06-10T16:08:45;1.60;;;1.35;;
63653;SDS011;49809;47.418;19.080;2023-06-10T16:12:12;2.58;;;1.83;;
63653;SDS011;49809;47.418;19.080;2023-06-10T16:16:23;3.00;;;1.85;;
63653;SDS011;49809;47.418;19.080;2023-06-10T16:19:47;2.25;;;1.60;;
63653;SDS011;49809;47.418;19.080;2023-06-10T16:23:20;2.30;;;1.70;;
63653;SDS011;49809;47.418;19.080;2023-06-10T16:26:44;1.80;;;1.60;;
63653;SDS011;49809;47.418;19.080;2023-06-10T16:30:35;2.85;;;1.80;;
63653;SDS011;49809;47.418;19.080;2023-06-10T16:34:06;3.05;;;1.67;;
63653;SDS011;49809;47.418;19.080;2023-06-10T16:37:54;2.30;;;1.73;;
63653;SDS011;49809;47.418;19.080;2023-06-10T16:45:50;2.83;;;1.83;;
63653;SDS011;49809;47.418;19.080;2023-06-10T16:49:39;2.60;;;1.75;;
63653;SDS011;49809;47.418;19.080;2023-06-10T16:53:26;2.95;;;2.10;;
63653;SDS011;49809;47.418;19.080;2023-06-10T16:56:51;2.83;;;1.90;;
63653;SDS011;49809;47.418;19.080;2023-06-10T17:00:35;2.62;;;1.92;;
63653;SDS011;49809;47.418;19.080;2023-06-10T17:04:18;2.78;;;2.35;;
63653;SDS011;49809;47.418;19.080;2023-06-10T17:07:55;4.87;;;2.50;;
63653;SDS011;49809;47.418;19.080;2023-06-10T17:11:35;2.92;;;2.45;;
63653;SDS011;49809;47.418;19.080;2023-06-10T17:14:55;2.22;;;1.85;;
63653;SDS011;49809;47.418;19.080;2023-06-10T17:19:01;4.00;;;2.80;;
63653;SDS011;49809;47.418;19.080;2023-06-10T17:22:54;5.57;;;4.45;;
63653;SDS011;49809;47.418;19.080;2023-06-10T17:26:31;6.82;;;5.68;;
63653;SDS011;49809;47.418;19.080;2023-06-10T17:29:56;5.22;;;3.97;;
63653;SDS011;49809;47.418;19.080;2023-06-10T17:33:20;3.62;;;3.00;;
63653;SDS011;49809;47.418;19.080;2023-06-10T17:37:13;3.00;;;2.30;;
63653;SDS011;49809;47.418;19.080;2023-06-10T17:41:24;3.30;;;2.75;;
63653;SDS011;49809;47.418;19.080;2023-06-10T17:44:52;4.30;;;2.80;;
63653;SDS011;49809;47.418;19.080;2023-06-10T17:48:42;5.25;;;3.00;;
63653;SDS011;49809;47.418;19.080;2023-06-10T17:52:13;3.90;;;2.62;;
63653;SDS011;49809;47.418;19.080;2023-06-10T17:56:19;5.18;;;3.78;;
63653;SDS011;49809;47.418;19.080;2023-06-10T17:59:52;4.50;;;2.97;;
63653;SDS011;49809;47.418;19.080;2023-06-10T18:03:12;4.65;;;2.62;;
63653;SDS011;49809;47.418;19.080;2023-06-10T18:06:56;3.53;;;2.70;;
63653;SDS011;49809;47.418;19.080;2023-06-10T18:10:33;4.12;;;3.28;;
63653;SDS011;49809;47.418;19.080;2023-06-10T18:14:12;5.82;;;3.30;;
63653;SDS011;49809;47.418;19.080;2023-06-10T18:18:10;6.28;;;4.25;;
63653;SDS011;49809;47.418;19.080;2023-06-10T18:21:34;9.55;;;5.93;;
63653;SDS011;49809;47.418;19.080;2023-06-10T18:25:24;8.13;;;4.45;;
63653;SDS011;49809;47.418;19.080;2023-06-10T18:29:01;7.57;;;3.92;;
63653;SDS011;49809;47.418;19.080;2023-06-10T18:32:52;7.15;;;3.28;;
63653;SDS011;49809;47.418;19.080;2023-06-10T18:36:26;4.87;;;3.20;;
63653;SDS011;49809;47.418;19.080;2023-06-10T18:40:04;11.10;;;5.30;;
63653;SDS011;49809;47.418;19.080;2023-06-10T18:43:54;13.77;;;7.10;;
63653;SDS011;49809;47.418;19.080;2023-06-10T18:47:16;16.08;;;9.07;;
63653;SDS011;49809;47.418;19.080;2023-06-10T18:51:01;20.35;;;10.77;;
63653;SDS011;49809;47.418;19.080;2023-06-10T18:54:44;16.67;;;9.35;;
63653;SDS011;49809;47.418;19.080;2023-06-10T18:58:03;10.40;;;4.82;;
63653;SDS011;49809;47.418;19.080;2023-06-10T19:01:37;5.28;;;3.75;;
63653;SDS011;49809;47.418;19.080;2023-06-10T19:05:20;8.18;;;3.90;;
63653;SDS011;49809;47.418;19.080;2023-06-10T19:08:55;5.05;;;3.22;;
63653;SDS011;49809;47.418;19.080;2023-06-10T19:12:38;7.43;;;3.58;;
63653;SDS011;49809;47.418;19.080;2023-06-10T19:16:10;5.45;;;3.28;;
63653;SDS011;49809;47.418;19.080;2023-06-10T19:19:51;6.68;;;3.42;;
63653;SDS011;49809;47.418;19.080;2023-06-10T19:24:00;4.60;;;3.00;;
63653;SDS011;49809;47.418;19.080;2023-06-10T19:27:35;4.37;;;2.80;;
63653;SDS011;49809;47.418;19.080;2023-06-10T19:31:07;3.85;;;2.60;;
63653;SDS011;49809;47.418;19.080;2023-06-10T19:34:56;3.58;;;2.55;;
63653;SDS011;49809;47.418;19.080;2023-06-10T19:38:36;4.28;;;2.90;;
63653;SDS011;49809;47.418;19.080;2023-06-10T19:42:28;4.78;;;2.83;;
63653;SDS011;49809;47.418;19.080;2023-06-10T19:46:20;4.55;;;3.15;;
63653;SDS011;49809;47.418;19.080;2023-06-10T19:49:48;5.87;;;3.03;;
63653;SDS011;49809;47.418;19.080;2023-06-10T19:53:46;4.15;;;3.05;;
63653;SDS011;49809;47.418;19.080;2023-06-10T19:57:15;4.50;;;2.87;;
63653;SDS011;49809;47.418;19.080;2023-06-10T20:00:51;4.87;;;3.20;;
63653;SDS011;49809;47.418;19.080;2023-06-10T20:04:45;4.00;;;3.10;;
63653;SDS011;49809;47.418;19.080;2023-06-10T20:12:10;4.30;;;3.12;;
63653;SDS011;49809;47.418;19.080;2023-06-10T20:15:46;5.05;;;3.08;;
63653;SDS011;49809;47.418;19.080;2023-06-10T20:19:31;5.30;;;3.50;;
63653;SDS011;49809;47.418;19.080;2023-06-10T20:26:47;4.40;;;3.45;;
63653;SDS011;49809;47.418;19.080;2023-06-10T20:30:41;4.57;;;3.30;;
63653;SDS011;49809;47.418;19.080;2023-06-10T20:38:47;3.45;;;2.83;;
63653;SDS011;49809;47.418;19.080;2023-06-10T20:42:27;4.70;;;3.33;;
63653;SDS011;49809;47.418;19.080;2023-06-10T20:45:57;6.37;;;2.80;;
63653;SDS011;49809;47.418;19.080;2023-06-10T20:50:01;4.20;;;2.60;;
63653;SDS011;49809;47.418;19.080;2023-06-10T20:53:36;4.97;;;2.90;;
63653;SDS011;49809;47.418;19.080;2023-06-10T20:57:23;4.00;;;2.90;;
63653;SDS011;49809;47.418;19.080;2023-06-10T21:01:19;4.25;;;2.67;;
63653;SDS011;49809;47.418;19.080;2023-06-10T21:05:14;4.22;;;3.03;;
63653;SDS011;49809;47.418;19.080;2023-06-10T21:08:40;4.25;;;2.87;;
63653;SDS011;49809;47.418;19.080;2023-06-10T21:12:32;5.25;;;2.90;;
63653;SDS011;49809;47.418;19.080;2023-06-10T21:15:58;3.42;;;2.60;;
63653;SDS011;49809;47.418;19.080;2023-06-10T21:19:20;4.82;;;2.70;;
63653;SDS011;49809;47.418;19.080;2023-06-10T21:23:27;4.85;;;2.65;;
63653;SDS011;49809;47.418;19.080;2023-06-10T21:27:12;3.83;;;2.92;;
63653;SDS011;49809;47.418;19.080;2023-06-10T21:31:03;3.22;;;2.50;;
63653;SDS011;49809;47.418;19.080;2023-06-10T21:34:54;3.00;;;2.28;;
63653;SDS011;49809;47.418;19.080;2023-06-10T21:38:40;3.25;;;2.55;;
63653;SDS011;49809;47.418;19.080;2023-06-10T21:42:08;3.70;;;2.60;;
63653;SDS011;49809;47.418;19.080;2023-06-10T21:46:12;4.07;;;2.62;;
63653;SDS011;49809;47.418;19.080;2023-06-10T21:49:41;5.80;;;3.10;;
63653;SDS011;49809;47.418;19.080;2023-06-10T21:53:28;4.20;;;2.83;;
63653;SDS011;49809;47.418;19.080;2023-06-10T21:56:45;5.40;;;3.60;;
63653;SDS011;49809;47.418;19.080;2023-06-10T22:04:18;6.37;;;3.30;;
63653;SDS011;49809;47.418;19.080;2023-06-10T22:08:10;5.75;;;3.83;;
63653;SDS011;49809;47.418;19.080;2023-06-10T22:11:27;6.05;;;3.65;;
63653;SDS011;49809;47.418;19.080;2023-06-10T22:14:58;4.68;;;3.35;;
63653;SDS011;49809;47.418;19.080;2023-06-10T22:18:46;5.35;;;3.75;;
63653;SDS011;49809;47.418;19.080;2023-06-10T22:22:22;4.32;;;3.08;;
63653;SDS011;49809;47.418;19.080;2023-06-10T22:25:58;6.30;;;3.60;;
63653;SDS011;49809;47.418;19.080;2023-06-10T22:29:46;5.55;;;3.40;;
63653;SDS011;49809;47.418;19.080;2023-06-10T22:33:39;4.90;;;2.97;;
63653;SDS011;49809;47.418;19.080;2023-06-10T22:37:13;6.30;;;3.58;;
63653;SDS011;49809;47.418;19.080;2023-06-10T22:40:49;5.95;;;3.22;;
63653;SDS011;49809;47.418;19.080;2023-06-10T22:44:29;5.20;;;3.55;;